createdAt,value
2023-05-26T00:00:10.698Z,98895.78
2023-05-26T00:05:18.018Z,98888.09
2023-05-26T00:10:22.559Z,98890.22
2023-05-26T00:15:27.024Z,98877.69
2023-05-26T00:20:32.771Z,98884.03
2023-05-26T00:25:37.249Z,98882.75
2023-05-26T00:30:41.615Z,98874.63
2023-05-26T00:35:47.906Z,98872.63
2023-05-26T00:40:52.585Z,98875.88
2023-05-26T00:45:56.766Z,98874.03
2023-05-26T00:51:02.796Z,98871.63
2023-05-26T00:56:09.205Z,98866.16
2023-05-26T01:01:14.494Z,98865.97
2023-05-26T01:06:23.580Z,98860.00
2023-05-26T01:11:34.602Z,98867.19
2023-05-26T01:16:46.898Z,98867.47
2023-05-26T01:21:56.780Z,98867.00
2023-05-26T01:27:20.221Z,98859.41
2023-05-26T01:32:29.040Z,98857.84
2023-05-26T01:37:33.831Z,98854.25
2023-05-26T01:42:43.931Z,98851.19
2023-05-26T01:47:56.317Z,98852.66
2023-05-26T01:53:09.003Z,98849.09
2023-05-26T01:58:13.777Z,98848.97
2023-05-26T02:03:19.870Z,98850.25
2023-05-26T02:08:24.166Z,98852.53
2023-05-26T02:13:28.548Z,98848.63
2023-05-26T02:18:34.291Z,98855.50
2023-05-26T02:23:39.198Z,98851.88
2023-05-26T02:28:44.260Z,98855.66
2023-05-26T02:33:49.912Z,98854.81
2023-05-26T02:38:54.444Z,98860.69
2023-05-26T02:43:59.712Z,98855.47
2023-05-26T02:49:08.922Z,98856.78
2023-05-26T02:54:13.091Z,98861.53
2023-05-26T02:59:17.354Z,98856.63
2023-05-26T03:04:23.017Z,98860.72
2023-05-26T03:09:27.187Z,98863.97
2023-05-26T03:14:32.032Z,98868.88
2023-05-26T03:19:37.836Z,98869.69
2023-05-26T03:24:42.337Z,98863.28
2023-05-26T03:29:46.646Z,98868.84
2023-05-26T03:34:52.538Z,98869.97
2023-05-26T03:39:58.737Z,98875.66
2023-05-26T03:45:06.786Z,98874.47
2023-05-26T03:50:12.920Z,98873.47
2023-05-26T03:55:18.902Z,98874.56
2023-05-26T04:00:23.306Z,98875.97
2023-05-26T04:05:29.789Z,98879.72
2023-05-26T04:10:34.152Z,98881.81
2023-05-26T04:15:38.484Z,98881.59
2023-05-26T04:20:44.853Z,98895.47
2023-05-26T04:25:50.696Z,98895.25
2023-05-26T04:31:10.047Z,98899.31
2023-05-26T04:36:42.219Z,98901.88
2023-05-26T04:41:47.641Z,98896.13
2023-05-26T04:46:54.439Z,98905.91
2023-05-26T04:52:02.645Z,98907.19
2023-05-26T04:57:07.053Z,98907.38
2023-05-26T05:02:21.977Z,98903.09
2023-05-26T05:07:33.575Z,98905.66
2023-05-26T05:12:38.785Z,98909.75
2023-05-26T05:17:46.868Z,98912.78
2023-05-26T05:22:53.069Z,98915.22
2023-05-26T05:28:00.370Z,98916.84
2023-05-26T05:33:04.937Z,98917.66
2023-05-26T05:38:10.919Z,98911.53
2023-05-26T05:43:15.601Z,98922.59
2023-05-26T05:48:19.896Z,98927.13
2023-05-26T05:53:35.377Z,98919.66
2023-05-26T05:58:39.883Z,98929.25
2023-05-26T06:03:44.435Z,98931.47
2023-05-26T06:08:50.184Z,98932.25
2023-05-26T06:13:54.611Z,98935.88
2023-05-26T06:18:59.250Z,98947.66
2023-05-26T06:24:05.565Z,98952.66
2023-05-26T06:29:10.072Z,98941.88
2023-05-26T06:34:15.277Z,98938.63
2023-05-26T06:39:20.836Z,98949.69
2023-05-26T06:44:27.768Z,98943.91
2023-05-26T06:49:32.050Z,98948.34
2023-05-26T06:54:45.819Z,98950.97
2023-05-26T06:59:50.309Z,98950.31
2023-05-26T07:04:55.824Z,98947.25
2023-05-26T07:10:01.629Z,98946.78
2023-05-26T07:15:08.734Z,98956.91
2023-05-26T07:20:14.122Z,98954.16
2023-05-26T07:25:20.159Z,98960.59
2023-05-26T07:30:26.775Z,98951.47
2023-05-26T07:35:43.543Z,98963.38
2023-05-26T07:40:52.292Z,98960.44
2023-05-26T07:45:57.298Z,98965.34
2023-05-26T07:51:01.572Z,98968.03
2023-05-26T07:56:07.376Z,98970.13
2023-05-26T08:01:12.277Z,98969.38
2023-05-26T08:06:26.391Z,98975.72
2023-05-26T08:11:32.277Z,98980.19
2023-05-26T08:16:36.900Z,98965.16
2023-05-26T08:21:41.136Z,98961.88
2023-05-26T08:26:46.922Z,98960.88
2023-05-26T08:31:51.852Z,98968.03
2023-05-26T08:36:56.347Z,98961.59
2023-05-26T08:42:06.797Z,98954.97
2023-05-26T08:47:13.694Z,98965.88
2023-05-26T08:52:19.657Z,98971.22
2023-05-26T08:57:28.400Z,98965.56
2023-05-26T09:02:32.791Z,98971.66
2023-05-26T09:07:37.295Z,98974.13
2023-05-26T09:12:44.495Z,98974.75
2023-05-26T09:17:50.265Z,98974.13
2023-05-26T09:22:58.552Z,98978.00
2023-05-26T09:28:06.023Z,98974.91
2023-05-26T09:33:14.439Z,98979.00
2023-05-26T09:38:21.315Z,98975.75
2023-05-26T09:43:27.200Z,98975.97
2023-05-26T09:48:37.192Z,98977.03
2023-05-26T09:53:41.621Z,98983.28
2023-05-26T09:58:49.258Z,98980.25
2023-05-26T10:03:54.061Z,98983.75
2023-05-26T10:09:00.152Z,98974.47
2023-05-26T10:14:05.753Z,98978.38
2023-05-26T10:19:10.200Z,98978.38
2023-05-26T10:24:19.628Z,98979.44
2023-05-26T10:29:34.744Z,98972.50
2023-05-26T10:34:43.929Z,98980.41
2023-05-26T10:39:49.959Z,98977.66
2023-05-26T10:44:57.937Z,98971.72
2023-05-26T10:50:02.581Z,98969.88
2023-05-26T10:55:08.741Z,98969.34
2023-05-26T11:00:29.654Z,98957.41
2023-05-26T11:05:34.959Z,98956.81
2023-05-26T11:11:01.401Z,98963.00
2023-05-26T11:16:18.022Z,98971.59
2023-05-26T11:21:27.134Z,98966.69
2023-05-26T11:26:33.716Z,98968.56
2023-05-26T11:31:39.854Z,98957.31
2023-05-26T11:36:49.369Z,98954.72
2023-05-26T11:41:53.636Z,98972.72
2023-05-26T11:46:59.236Z,98947.91
2023-05-26T11:52:03.650Z,98953.88
2023-05-26T11:57:07.928Z,98960.53
2023-05-26T12:02:13.537Z,98953.38
2023-05-26T12:07:31.654Z,98965.47
2023-05-26T12:12:49.487Z,98960.06
2023-05-26T12:17:56.873Z,98964.81
2023-05-26T12:23:03.548Z,98951.22
2023-05-26T12:28:08.178Z,98956.06
2023-05-26T12:33:14.094Z,98959.72
2023-05-26T12:38:18.308Z,98948.31
2023-05-26T12:43:24.104Z,98955.50
2023-05-26T12:48:29.759Z,98950.38
2023-05-26T12:53:34.223Z,98948.38
2023-05-26T12:58:38.463Z,98932.66
2023-05-26T13:03:44.863Z,98933.06
2023-05-26T13:08:49.455Z,98946.56
2023-05-26T13:13:53.655Z,98941.34
2023-05-26T13:18:59.228Z,98955.09
2023-05-26T13:24:03.788Z,98957.19
2023-05-26T13:29:08.646Z,98968.56
2023-05-26T13:34:14.476Z,98959.19
2023-05-26T13:39:19.061Z,98961.03
2023-05-26T13:44:23.437Z,98966.09
2023-05-26T13:49:29.054Z,98970.13
2023-05-26T13:54:33.443Z,98968.50
2023-05-26T13:59:37.443Z,98983.75
2023-05-26T14:04:43.963Z,98990.84
2023-05-26T14:09:48.163Z,98996.13
2023-05-26T14:14:52.178Z,98994.72
2023-05-26T14:20:07.898Z,98998.75
2023-05-26T14:25:14.160Z,98985.28
2023-05-26T14:30:23.258Z,98981.09
2023-05-26T14:35:28.838Z,98980.13
2023-05-26T14:40:33.648Z,98974.09
2023-05-26T14:45:38.141Z,98966.78
2023-05-26T14:50:44.438Z,98974.53
2023-05-26T14:55:48.909Z,98959.91
2023-05-26T15:00:54.395Z,98963.41
2023-05-26T15:06:00.157Z,98973.69
2023-05-26T15:11:04.530Z,98976.72
2023-05-26T15:16:09.013Z,98986.72
2023-05-26T15:21:20.376Z,98974.94
2023-05-26T15:26:25.049Z,98976.28
2023-05-26T15:31:29.441Z,98981.25
2023-05-26T15:36:35.443Z,98976.25
2023-05-26T15:41:40.176Z,98973.03
2023-05-26T15:46:44.777Z,98966.97
2023-05-26T15:51:50.976Z,98953.47
2023-05-26T15:56:55.255Z,98937.25
2023-05-26T16:01:59.859Z,98935.34
2023-05-26T16:07:06.588Z,98933.50
2023-05-26T16:12:10.823Z,98916.88
2023-05-26T16:17:15.029Z,98923.81
2023-05-26T16:22:20.658Z,98917.31
2023-05-26T16:27:25.213Z,98925.06
2023-05-26T16:32:29.809Z,98920.84
2023-05-26T16:37:35.636Z,98918.13
2023-05-26T16:42:40.000Z,98910.69
2023-05-26T16:47:44.223Z,98921.13
2023-05-26T16:52:50.005Z,98919.75
2023-05-26T16:57:54.586Z,98924.47
2023-05-26T17:02:58.996Z,98909.81
2023-05-26T17:08:04.694Z,98921.31
2023-05-26T17:13:09.112Z,98915.03
2023-05-26T17:18:13.418Z,98905.78
2023-05-26T17:23:19.417Z,98909.81
2023-05-26T17:28:23.610Z,98904.94
2023-05-26T17:33:28.037Z,98907.03
2023-05-26T17:38:34.967Z,98917.00
2023-05-26T17:43:39.957Z,98918.03
2023-05-26T17:48:44.532Z,98923.53
2023-05-26T17:53:51.159Z,98926.59
2023-05-26T17:58:55.698Z,98923.06
2023-05-26T18:04:00.133Z,98924.66
2023-05-26T18:09:07.580Z,98920.31
2023-05-26T18:14:14.839Z,98907.75
2023-05-26T18:19:19.589Z,98900.06
2023-05-26T18:24:25.115Z,98897.66
2023-05-26T18:29:30.408Z,98895.31
2023-05-26T18:34:34.774Z,98899.16
2023-05-26T18:39:40.594Z,98910.00
2023-05-26T18:44:45.055Z,98924.78
2023-05-26T18:49:49.244Z,98938.63
2023-05-26T18:54:55.444Z,98934.78
2023-05-26T19:00:00.348Z,98951.81
2023-05-26T19:05:05.047Z,98953.09
2023-05-26T19:10:11.162Z,98963.72
2023-05-26T19:15:15.466Z,98967.69
2023-05-26T19:20:20.073Z,98973.38
2023-05-26T19:25:26.160Z,98972.94
2023-05-26T19:30:30.631Z,98975.97
2023-05-26T19:35:34.802Z,98979.91
2023-05-26T19:40:42.636Z,98978.97
2023-05-26T19:45:47.378Z,98986.53
2023-05-26T19:50:52.068Z,98988.19
2023-05-26T19:55:58.308Z,98984.56
2023-05-26T20:01:02.608Z,98990.44
2023-05-26T20:06:08.118Z,99008.22
2023-05-26T20:11:13.768Z,99010.34
2023-05-26T20:16:18.331Z,99009.44
2023-05-26T20:21:22.737Z,99014.13
2023-05-26T20:26:28.786Z,99007.78
2023-05-26T20:31:33.196Z,99019.78
2023-05-26T20:36:37.809Z,99026.56
2023-05-26T20:41:43.557Z,99032.53
2023-05-26T20:46:47.971Z,99026.91
2023-05-26T20:51:52.664Z,99035.91
2023-05-26T20:56:59.210Z,99032.72
2023-05-26T21:02:06.808Z,99037.09
2023-05-26T21:07:11.476Z,99040.81
2023-05-26T21:12:18.895Z,99031.63
2023-05-26T21:17:23.330Z,99035.47
2023-05-26T21:22:27.519Z,99039.50
2023-05-26T21:27:33.022Z,99047.69
2023-05-26T21:32:37.258Z,99048.94
2023-05-26T21:37:41.513Z,99040.84
2023-05-26T21:42:47.095Z,99050.59
2023-05-26T21:47:51.421Z,99051.78
2023-05-26T21:52:55.699Z,99052.16
2023-05-26T21:58:02.170Z,99047.81
2023-05-26T22:03:06.620Z,99049.75
2023-05-26T22:08:11.093Z,99046.09
2023-05-26T22:13:17.057Z,99048.53
2023-05-26T22:18:21.271Z,99043.41
2023-05-26T22:23:25.870Z,99033.56
2023-05-26T22:28:31.664Z,99054.72
2023-05-26T22:33:36.256Z,99048.81
2023-05-26T22:38:40.510Z,99047.91
2023-05-26T22:43:46.284Z,99046.28
2023-05-26T22:48:51.070Z,99048.34
2023-05-26T22:53:55.433Z,99041.38
2023-05-26T22:59:01.608Z,99052.88
2023-05-26T23:04:06.526Z,99047.41
2023-05-26T23:09:11.455Z,99052.63
2023-05-26T23:14:17.387Z,99050.97
2023-05-26T23:19:21.821Z,99055.78
2023-05-26T23:24:27.061Z,99062.09
2023-05-26T23:29:32.618Z,99066.06
2023-05-26T23:34:36.785Z,99066.88
2023-05-26T23:39:41.195Z,99067.41
2023-05-26T23:44:46.846Z,99064.53
2023-05-26T23:49:51.298Z,99061.28
2023-05-26T23:54:56.027Z,99066.75
